Stouffville Airport

CA-0635 · 安大略, 加拿大

罗盘
风向 的 风向 320°
风向 到 风: 12 kt, 阵阵 20 kt, 4 beaufort

添加一条跑道以查看侧风和逆风信息。

添置 跑道
0 ft 1.000 2.000 3.000 4.000 5.000
Cloud Cloud Cloud Cloud Cloud Cloud
BKN 2.000
Cloud Cloud Cloud Cloud Cloud Cloud Cloud Cloud
OVC 3.100
METAR CYTZ 291859Z AUTO 32012G20KT 9SM BKN020 OVC031 M01/M03 A2998 RMK SLP157

METAR Stouffville Airport - CA-0635

Stouffville Airport是,加拿大中的小机场。 视场标高为972 ft。 该领域的国际民航组织标志是CA-0635.

这份报告是针对2023年1月29日 13:59, 当地时间在比利·畢曉普多倫多市機場进行的。

机场观察

风向为320°,速度为12 kt。 已测得20 kt的阵风。

可见度为9 mi。

有碎云在2.000 ft的高度 和 乌云密布在3.100 ft的高度。 破损或更高的上限为2.000 ft。

温度为-1 °C,阵风为-9 °C。 露点为-3 °C,相对湿度为86%。 海平面上的气压为29,98 inHg (QNH)。

白天

今天,太阳从07:37升起,在17:22降落。 这适用于Stouffville Airport,世界夏令时可能有所不同。 当地时间与世界标准时间之间的时差为-5 小时。 当前,没有夏令时有效。

公司介绍

我们没有关于这个机场的公司信息。

体会

到Vliegles.nl去找飞行课程,跳伞和其他飞行体验。 浏览页面,了解Stouffville Airport附近所有可用的活动。 你也可以使用搜索功能来寻找你所在地附近的特定飞行课程、跳伞或其他飞行体验。

乌云

2.000 ft BKN 碎云
3.100 ft OVC 乌云密布

温度 & 天气

温度 -1 °C
露点 -3 °C
相对湿度 86%
风寒 -9 °C
Kp-index 0 (0-9)

评论

SLP157海平面压力为29,99 inHg (29,99 inHg)

白天

日出
07:37
中午
12:30
日落
17:24 (3:18)

小工具

你想在你的网站上有一个关于Stouffville Airport的当前航空天气(METAR)的小部件吗?

显示HTML代码

我们和第三方通过cookies跟踪您在我们网站上的互联网行为。如果你继续,我们认为你同意我们的饼干政策